sensor_id;sensor_type;location;lat;lon;timestamp;P1;durP1;ratioP1;P2;durP2;ratioP2
8665;SDS011;4370;48.916;8.380;2023-08-31T00:01:35;4.27;;;2.90;;
8665;SDS011;4370;48.916;8.380;2023-08-31T00:04:01;5.60;;;2.90;;
8665;SDS011;4370;48.916;8.380;2023-08-31T00:06:29;5.50;;;3.20;;
8665;SDS011;4370;48.916;8.380;2023-08-31T00:08:55;5.13;;;3.20;;
8665;SDS011;4370;48.916;8.380;2023-08-31T00:11:21;5.53;;;3.20;;
8665;SDS011;4370;48.916;8.380;2023-08-31T00:13:47;3.33;;;2.77;;
8665;SDS011;4370;48.916;8.380;2023-08-31T00:16:12;5.00;;;3.27;;
8665;SDS011;4370;48.916;8.380;2023-08-31T00:18:38;3.83;;;2.90;;
8665;SDS011;4370;48.916;8.380;2023-08-31T00:21:04;3.43;;;3.00;;
8665;SDS011;4370;48.916;8.380;2023-08-31T00:23:31;6.93;;;3.13;;
8665;SDS011;4370;48.916;8.380;2023-08-31T00:25:57;4.17;;;3.27;;
8665;SDS011;4370;48.916;8.380;2023-08-31T00:28:23;3.87;;;3.37;;
8665;SDS011;4370;48.916;8.380;2023-08-31T00:30:52;5.20;;;3.30;;
8665;SDS011;4370;48.916;8.380;2023-08-31T00:33:18;4.00;;;3.23;;
8665;SDS011;4370;48.916;8.380;2023-08-31T00:35:44;4.07;;;2.73;;
8665;SDS011;4370;48.916;8.380;2023-08-31T00:38:13;5.23;;;3.30;;
8665;SDS011;4370;48.916;8.380;2023-08-31T00:40:40;5.07;;;3.47;;
8665;SDS011;4370;48.916;8.380;2023-08-31T00:43:07;6.60;;;3.50;;
8665;SDS011;4370;48.916;8.380;2023-08-31T00:45:33;3.27;;;2.87;;
8665;SDS011;4370;48.916;8.380;2023-08-31T00:47:59;4.17;;;3.10;;
8665;SDS011;4370;48.916;8.380;2023-08-31T00:50:26;4.47;;;3.07;;
8665;SDS011;4370;48.916;8.380;2023-08-31T00:52:52;5.83;;;3.20;;
8665;SDS011;4370;48.916;8.380;2023-08-31T00:55:18;5.50;;;3.33;;
8665;SDS011;4370;48.916;8.380;2023-08-31T00:57:44;5.37;;;3.60;;
8665;SDS011;4370;48.916;8.380;2023-08-31T01:00:10;4.77;;;3.40;;
8665;SDS011;4370;48.916;8.380;2023-08-31T01:02:39;4.27;;;3.00;;
8665;SDS011;4370;48.916;8.380;2023-08-31T01:05:21;7.00;;;3.50;;
8665;SDS011;4370;48.916;8.380;2023-08-31T01:07:57;3.77;;;3.37;;
8665;SDS011;4370;48.916;8.380;2023-08-31T01:12:52;4.03;;;3.10;;
8665;SDS011;4370;48.916;8.380;2023-08-31T01:15:20;3.63;;;3.03;;
8665;SDS011;4370;48.916;8.380;2023-08-31T01:17:52;4.77;;;3.23;;
8665;SDS011;4370;48.916;8.380;2023-08-31T01:20:31;3.60;;;3.10;;
8665;SDS011;4370;48.916;8.380;2023-08-31T01:23:00;5.80;;;3.33;;
8665;SDS011;4370;48.916;8.380;2023-08-31T01:25:29;3.93;;;3.30;;
8665;SDS011;4370;48.916;8.380;2023-08-31T01:27:55;3.37;;;2.87;;
8665;SDS011;4370;48.916;8.380;2023-08-31T01:30:21;5.27;;;3.40;;
8665;SDS011;4370;48.916;8.380;2023-08-31T01:32:48;5.50;;;3.33;;
8665;SDS011;4370;48.916;8.380;2023-08-31T01:35:14;4.43;;;3.57;;
8665;SDS011;4370;48.916;8.380;2023-08-31T01:40:14;4.40;;;3.50;;
8665;SDS011;4370;48.916;8.380;2023-08-31T01:42:43;4.23;;;2.90;;
8665;SDS011;4370;48.916;8.380;2023-08-31T01:45:10;3.33;;;2.90;;
8665;SDS011;4370;48.916;8.380;2023-08-31T01:47:36;3.80;;;3.37;;
8665;SDS011;4370;48.916;8.380;2023-08-31T01:50:02;4.43;;;3.00;;
8665;SDS011;4370;48.916;8.380;2023-08-31T01:52:28;3.50;;;3.20;;
8665;SDS011;4370;48.916;8.380;2023-08-31T01:54:55;5.13;;;3.53;;
8665;SDS011;4370;48.916;8.380;2023-08-31T01:57:21;5.40;;;3.40;;
8665;SDS011;4370;48.916;8.380;2023-08-31T01:59:47;4.53;;;3.90;;
8665;SDS011;4370;48.916;8.380;2023-08-31T02:02:13;4.27;;;3.23;;
8665;SDS011;4370;48.916;8.380;2023-08-31T02:04:39;4.53;;;3.43;;
8665;SDS011;4370;48.916;8.380;2023-08-31T02:07:05;3.73;;;3.10;;
8665;SDS011;4370;48.916;8.380;2023-08-31T02:09:31;4.67;;;3.43;;
8665;SDS011;4370;48.916;8.380;2023-08-31T02:11:57;4.50;;;3.10;;
8665;SDS011;4370;48.916;8.380;2023-08-31T02:14:23;4.77;;;2.83;;
8665;SDS011;4370;48.916;8.380;2023-08-31T02:16:49;4.73;;;3.30;;
8665;SDS011;4370;48.916;8.380;2023-08-31T02:19:15;4.30;;;3.30;;
8665;SDS011;4370;48.916;8.380;2023-08-31T02:21:41;5.37;;;3.10;;
8665;SDS011;4370;48.916;8.380;2023-08-31T02:24:07;3.97;;;3.10;;
8665;SDS011;4370;48.916;8.380;2023-08-31T02:26:35;4.50;;;3.17;;
8665;SDS011;4370;48.916;8.380;2023-08-31T02:29:02;3.90;;;2.90;;
8665;SDS011;4370;48.916;8.380;2023-08-31T02:31:28;3.27;;;2.83;;
8665;SDS011;4370;48.916;8.380;2023-08-31T02:33:54;3.37;;;3.00;;
8665;SDS011;4370;48.916;8.380;2023-08-31T02:36:20;3.07;;;2.77;;
8665;SDS011;4370;48.916;8.380;2023-08-31T02:38:46;3.23;;;2.77;;
8665;SDS011;4370;48.916;8.380;2023-08-31T02:41:14;3.70;;;2.90;;
8665;SDS011;4370;48.916;8.380;2023-08-31T02:43:40;5.33;;;3.20;;
8665;SDS011;4370;48.916;8.380;2023-08-31T02:46:06;4.63;;;3.40;;
8665;SDS011;4370;48.916;8.380;2023-08-31T02:48:32;7.53;;;3.50;;
8665;SDS011;4370;48.916;8.380;2023-08-31T02:50:59;3.60;;;2.70;;
8665;SDS011;4370;48.916;8.380;2023-08-31T02:53:31;3.33;;;2.90;;
8665;SDS011;4370;48.916;8.380;2023-08-31T02:55:57;3.90;;;3.07;;
8665;SDS011;4370;48.916;8.380;2023-08-31T02:58:23;3.30;;;3.00;;
8665;SDS011;4370;48.916;8.380;2023-08-31T03:00:50;3.23;;;2.80;;
8665;SDS011;4370;48.916;8.380;2023-08-31T03:03:16;4.10;;;2.90;;
8665;SDS011;4370;48.916;8.380;2023-08-31T03:05:42;3.47;;;2.93;;
8665;SDS011;4370;48.916;8.380;2023-08-31T03:08:08;3.20;;;2.90;;
8665;SDS011;4370;48.916;8.380;2023-08-31T03:10:34;3.10;;;2.80;;
8665;SDS011;4370;48.916;8.380;2023-08-31T03:13:00;4.07;;;2.90;;
8665;SDS011;4370;48.916;8.380;2023-08-31T03:15:26;3.43;;;2.70;;
8665;SDS011;4370;48.916;8.380;2023-08-31T03:17:52;3.00;;;2.73;;
8665;SDS011;4370;48.916;8.380;2023-08-31T03:20:18;3.03;;;2.73;;
8665;SDS011;4370;48.916;8.380;2023-08-31T03:22:44;3.77;;;2.80;;
8665;SDS011;4370;48.916;8.380;2023-08-31T03:25:10;4.33;;;3.30;;
8665;SDS011;4370;48.916;8.380;2023-08-31T03:27:37;3.40;;;2.97;;
8665;SDS011;4370;48.916;8.380;2023-08-31T03:30:03;4.13;;;3.00;;
8665;SDS011;4370;48.916;8.380;2023-08-31T03:32:29;4.03;;;3.53;;
8665;SDS011;4370;48.916;8.380;2023-08-31T03:34:55;4.73;;;3.30;;
8665;SDS011;4370;48.916;8.380;2023-08-31T03:37:22;4.30;;;3.00;;
8665;SDS011;4370;48.916;8.380;2023-08-31T03:39:48;7.20;;;3.30;;
8665;SDS011;4370;48.916;8.380;2023-08-31T03:42:14;5.13;;;3.70;;
8665;SDS011;4370;48.916;8.380;2023-08-31T03:44:40;3.50;;;2.60;;
8665;SDS011;4370;48.916;8.380;2023-08-31T03:47:06;3.40;;;2.93;;
8665;SDS011;4370;48.916;8.380;2023-08-31T03:49:32;3.57;;;3.27;;
8665;SDS011;4370;48.916;8.380;2023-08-31T03:51:59;5.17;;;3.17;;
8665;SDS011;4370;48.916;8.380;2023-08-31T03:54:25;4.80;;;3.07;;
8665;SDS011;4370;48.916;8.380;2023-08-31T03:56:52;5.33;;;3.40;;
8665;SDS011;4370;48.916;8.380;2023-08-31T03:59:18;3.40;;;3.10;;
8665;SDS011;4370;48.916;8.380;2023-08-31T04:01:44;5.70;;;3.10;;
8665;SDS011;4370;48.916;8.380;2023-08-31T04:04:10;4.80;;;3.40;;
8665;SDS011;4370;48.916;8.380;2023-08-31T04:06:36;4.13;;;3.40;;
8665;SDS011;4370;48.916;8.380;2023-08-31T04:09:02;4.80;;;3.40;;
8665;SDS011;4370;48.916;8.380;2023-08-31T04:11:28;4.73;;;3.30;;
8665;SDS011;4370;48.916;8.380;2023-08-31T04:13:54;4.77;;;3.20;;
8665;SDS011;4370;48.916;8.380;2023-08-31T04:16:20;6.77;;;3.17;;
8665;SDS011;4370;48.916;8.380;2023-08-31T04:18:46;6.83;;;3.10;;
8665;SDS011;4370;48.916;8.380;2023-08-31T04:21:16;7.37;;;3.20;;
8665;SDS011;4370;48.916;8.380;2023-08-31T04:23:42;5.70;;;3.27;;
8665;SDS011;4370;48.916;8.380;2023-08-31T04:26:14;3.30;;;2.80;;
8665;SDS011;4370;48.916;8.380;2023-08-31T04:28:42;4.47;;;3.00;;
8665;SDS011;4370;48.916;8.380;2023-08-31T04:31:08;4.50;;;3.03;;
8665;SDS011;4370;48.916;8.380;2023-08-31T04:33:36;4.03;;;2.87;;
8665;SDS011;4370;48.916;8.380;2023-08-31T04:36:03;3.00;;;2.70;;
8665;SDS011;4370;48.916;8.380;2023-08-31T04:38:30;5.60;;;3.30;;
8665;SDS011;4370;48.916;8.380;2023-08-31T04:40:59;4.20;;;2.93;;
8665;SDS011;4370;48.916;8.380;2023-08-31T04:43:26;3.97;;;2.90;;
8665;SDS011;4370;48.916;8.380;2023-08-31T04:45:52;4.77;;;3.00;;
8665;SDS011;4370;48.916;8.380;2023-08-31T04:48:18;5.50;;;2.97;;
8665;SDS011;4370;48.916;8.380;2023-08-31T04:50:47;6.77;;;3.00;;
8665;SDS011;4370;48.916;8.380;2023-08-31T04:53:13;3.47;;;2.70;;
8665;SDS011;4370;48.916;8.380;2023-08-31T04:55:39;7.03;;;3.20;;
8665;SDS011;4370;48.916;8.380;2023-08-31T04:58:05;4.17;;;2.60;;
8665;SDS011;4370;48.916;8.380;2023-08-31T05:00:31;5.73;;;3.03;;
8665;SDS011;4370;48.916;8.380;2023-08-31T05:02:57;3.83;;;2.70;;
8665;SDS011;4370;48.916;8.380;2023-08-31T05:05:23;4.47;;;2.83;;
8665;SDS011;4370;48.916;8.380;2023-08-31T05:07:49;5.03;;;2.80;;
8665;SDS011;4370;48.916;8.380;2023-08-31T05:10:15;3.87;;;2.40;;
8665;SDS011;4370;48.916;8.380;2023-08-31T05:12:42;4.97;;;2.80;;
8665;SDS011;4370;48.916;8.380;2023-08-31T05:15:08;5.50;;;2.90;;
8665;SDS011;4370;48.916;8.380;2023-08-31T05:17:34;3.80;;;2.77;;
8665;SDS011;4370;48.916;8.380;2023-08-31T05:20:02;4.07;;;2.53;;
8665;SDS011;4370;48.916;8.380;2023-08-31T05:22:33;3.03;;;2.67;;
8665;SDS011;4370;48.916;8.380;2023-08-31T05:24:59;2.87;;;2.57;;
8665;SDS011;4370;48.916;8.380;2023-08-31T05:27:26;3.37;;;2.40;;
8665;SDS011;4370;48.916;8.380;2023-08-31T05:29:52;2.97;;;2.53;;
8665;SDS011;4370;48.916;8.380;2023-08-31T05:32:18;2.60;;;2.40;;
8665;SDS011;4370;48.916;8.380;2023-08-31T05:34:44;3.83;;;2.43;;
8665;SDS011;4370;48.916;8.380;2023-08-31T05:37:10;5.73;;;2.80;;
8665;SDS011;4370;48.916;8.380;2023-08-31T05:39:36;3.43;;;2.50;;
8665;SDS011;4370;48.916;8.380;2023-08-31T05:42:03;3.00;;;2.60;;
8665;SDS011;4370;48.916;8.380;2023-08-31T05:44:29;4.17;;;2.40;;
8665;SDS011;4370;48.916;8.380;2023-08-31T05:46:55;4.27;;;2.37;;
8665;SDS011;4370;48.916;8.380;2023-08-31T05:49:21;2.43;;;2.23;;
8665;SDS011;4370;48.916;8.380;2023-08-31T05:51:47;4.73;;;2.47;;
8665;SDS011;4370;48.916;8.380;2023-08-31T05:54:13;4.87;;;2.40;;
8665;SDS011;4370;48.916;8.380;2023-08-31T05:56:39;3.47;;;2.53;;
8665;SDS011;4370;48.916;8.380;2023-08-31T05:59:05;5.93;;;2.20;;
8665;SDS011;4370;48.916;8.380;2023-08-31T06:01:32;4.70;;;2.90;;
8665;SDS011;4370;48.916;8.380;2023-08-31T06:03:58;4.87;;;2.53;;
8665;SDS011;4370;48.916;8.380;2023-08-31T06:06:24;4.63;;;2.50;;
8665;SDS011;4370;48.916;8.380;2023-08-31T06:08:50;5.03;;;2.60;;
8665;SDS011;4370;48.916;8.380;2023-08-31T06:11:16;3.70;;;2.37;;
8665;SDS011;4370;48.916;8.380;2023-08-31T06:13:42;6.37;;;2.43;;
8665;SDS011;4370;48.916;8.380;2023-08-31T06:16:08;5.63;;;2.50;;
8665;SDS011;4370;48.916;8.380;2023-08-31T06:18:34;4.40;;;2.20;;
8665;SDS011;4370;48.916;8.380;2023-08-31T06:21:00;3.83;;;2.10;;
8665;SDS011;4370;48.916;8.380;2023-08-31T06:23:26;3.47;;;2.17;;
8665;SDS011;4370;48.916;8.380;2023-08-31T06:25:52;3.90;;;1.97;;
8665;SDS011;4370;48.916;8.380;2023-08-31T06:28:18;6.30;;;2.10;;
8665;SDS011;4370;48.916;8.380;2023-08-31T06:30:44;6.73;;;2.20;;
8665;SDS011;4370;48.916;8.380;2023-08-31T06:33:11;4.73;;;2.23;;
8665;SDS011;4370;48.916;8.380;2023-08-31T06:35:39;5.57;;;2.37;;
8665;SDS011;4370;48.916;8.380;2023-08-31T06:38:05;7.47;;;2.20;;
8665;SDS011;4370;48.916;8.380;2023-08-31T06:40:31;4.27;;;2.17;;
8665;SDS011;4370;48.916;8.380;2023-08-31T06:42:58;3.67;;;2.10;;
8665;SDS011;4370;48.916;8.380;2023-08-31T06:45:24;4.23;;;2.00;;
8665;SDS011;4370;48.916;8.380;2023-08-31T06:47:50;6.13;;;2.50;;
8665;SDS011;4370;48.916;8.380;2023-08-31T06:50:16;5.20;;;2.23;;
8665;SDS011;4370;48.916;8.380;2023-08-31T06:52:42;5.57;;;2.63;;
8665;SDS011;4370;48.916;8.380;2023-08-31T06:55:12;3.60;;;2.13;;
8665;SDS011;4370;48.916;8.380;2023-08-31T06:57:38;8.00;;;2.57;;
8665;SDS011;4370;48.916;8.380;2023-08-31T07:00:04;3.73;;;2.17;;
8665;SDS011;4370;48.916;8.380;2023-08-31T07:02:33;3.87;;;2.20;;
8665;SDS011;4370;48.916;8.380;2023-08-31T07:04:59;4.93;;;2.33;;
8665;SDS011;4370;48.916;8.380;2023-08-31T07:07:26;3.50;;;2.30;;
8665;SDS011;4370;48.916;8.380;2023-08-31T07:09:52;6.23;;;2.37;;
8665;SDS011;4370;48.916;8.380;2023-08-31T07:12:19;4.83;;;2.47;;
8665;SDS011;4370;48.916;8.380;2023-08-31T07:14:45;3.20;;;2.30;;
8665;SDS011;4370;48.916;8.380;2023-08-31T07:17:12;3.27;;;2.40;;
8665;SDS011;4370;48.916;8.380;2023-08-31T07:19:38;4.97;;;2.83;;
8665;SDS011;4370;48.916;8.380;2023-08-31T07:22:04;5.00;;;2.70;;
8665;SDS011;4370;48.916;8.380;2023-08-31T07:24:32;6.10;;;2.40;;
8665;SDS011;4370;48.916;8.380;2023-08-31T07:27:00;6.90;;;2.70;;
8665;SDS011;4370;48.916;8.380;2023-08-31T07:29:27;4.43;;;2.10;;
8665;SDS011;4370;48.916;8.380;2023-08-31T07:31:53;4.10;;;2.03;;
8665;SDS011;4370;48.916;8.380;2023-08-31T07:34:19;4.07;;;2.10;;
8665;SDS011;4370;48.916;8.380;2023-08-31T07:36:45;3.60;;;2.23;;
8665;SDS011;4370;48.916;8.380;2023-08-31T07:39:12;3.73;;;2.00;;
8665;SDS011;4370;48.916;8.380;2023-08-31T07:41:38;5.17;;;2.10;;
8665;SDS011;4370;48.916;8.380;2023-08-31T07:44:05;3.07;;;1.90;;
8665;SDS011;4370;48.916;8.380;2023-08-31T07:46:31;4.73;;;2.27;;
8665;SDS011;4370;48.916;8.380;2023-08-31T07:48:57;5.33;;;2.20;;
8665;SDS011;4370;48.916;8.380;2023-08-31T07:51:23;4.20;;;2.10;;
8665;SDS011;4370;48.916;8.380;2023-08-31T07:53:50;3.20;;;1.87;;
8665;SDS011;4370;48.916;8.380;2023-08-31T07:56:16;3.73;;;2.20;;
8665;SDS011;4370;48.916;8.380;2023-08-31T07:58:43;5.23;;;2.30;;
8665;SDS011;4370;48.916;8.380;2023-08-31T08:01:09;4.90;;;2.40;;
8665;SDS011;4370;48.916;8.380;2023-08-31T08:03:35;3.73;;;2.10;;
8665;SDS011;4370;48.916;8.380;2023-08-31T08:06:01;6.80;;;2.50;;
8665;SDS011;4370;48.916;8.380;2023-08-31T08:08:28;3.93;;;2.03;;
8665;SDS011;4370;48.916;8.380;2023-08-31T08:10:54;3.87;;;1.90;;
8665;SDS011;4370;48.916;8.380;2023-08-31T08:13:20;3.10;;;2.10;;
8665;SDS011;4370;48.916;8.380;2023-08-31T08:15:46;7.30;;;2.40;;
8665;SDS011;4370;48.916;8.380;2023-08-31T08:18:12;4.07;;;2.30;;
8665;SDS011;4370;48.916;8.380;2023-08-31T08:20:38;2.37;;;1.90;;
8665;SDS011;4370;48.916;8.380;2023-08-31T08:23:05;4.13;;;2.20;;
8665;SDS011;4370;48.916;8.380;2023-08-31T08:25:31;3.80;;;2.07;;
8665;SDS011;4370;48.916;8.380;2023-08-31T08:27:57;5.63;;;2.20;;
8665;SDS011;4370;48.916;8.380;2023-08-31T08:30:23;6.13;;;2.10;;
8665;SDS011;4370;48.916;8.380;2023-08-31T08:32:49;6.03;;;2.10;;
8665;SDS011;4370;48.916;8.380;2023-08-31T08:35:15;3.07;;;1.87;;
8665;SDS011;4370;48.916;8.380;2023-08-31T08:37:41;3.37;;;2.00;;
8665;SDS011;4370;48.916;8.380;2023-08-31T08:40:07;7.30;;;2.40;;
8665;SDS011;4370;48.916;8.380;2023-08-31T08:42:35;4.93;;;2.03;;
8665;SDS011;4370;48.916;8.380;2023-08-31T08:45:03;5.43;;;2.23;;
8665;SDS011;4370;48.916;8.380;2023-08-31T08:47:31;5.83;;;1.80;;
8665;SDS011;4370;48.916;8.380;2023-08-31T08:49:58;5.10;;;2.10;;
8665;SDS011;4370;48.916;8.380;2023-08-31T08:52:25;5.40;;;2.30;;
8665;SDS011;4370;48.916;8.380;2023-08-31T08:54:51;5.37;;;2.43;;
8665;SDS011;4370;48.916;8.380;2023-08-31T08:57:18;3.93;;;2.10;;
8665;SDS011;4370;48.916;8.380;2023-08-31T08:59:44;4.27;;;2.13;;
8665;SDS011;4370;48.916;8.380;2023-08-31T09:02:10;4.47;;;2.03;;
8665;SDS011;4370;48.916;8.380;2023-08-31T09:04:37;6.27;;;2.10;;
8665;SDS011;4370;48.916;8.380;2023-08-31T09:07:03;4.87;;;2.10;;
8665;SDS011;4370;48.916;8.380;2023-08-31T09:09:29;2.97;;;2.30;;
8665;SDS011;4370;48.916;8.380;2023-08-31T09:11:55;4.03;;;1.70;;
8665;SDS011;4370;48.916;8.380;2023-08-31T09:14:21;4.00;;;1.93;;
8665;SDS011;4370;48.916;8.380;2023-08-31T09:16:48;5.20;;;2.17;;
8665;SDS011;4370;48.916;8.380;2023-08-31T09:19:18;4.13;;;1.93;;
8665;SDS011;4370;48.916;8.380;2023-08-31T09:21:44;4.87;;;1.80;;
8665;SDS011;4370;48.916;8.380;2023-08-31T09:24:11;5.30;;;2.10;;
8665;SDS011;4370;48.916;8.380;2023-08-31T09:26:38;4.40;;;2.00;;
8665;SDS011;4370;48.916;8.380;2023-08-31T09:29:05;6.67;;;2.30;;
8665;SDS011;4370;48.916;8.380;2023-08-31T09:31:31;5.13;;;2.37;;
8665;SDS011;4370;48.916;8.380;2023-08-31T09:33:57;3.90;;;2.20;;
8665;SDS011;4370;48.916;8.380;2023-08-31T09:36:23;3.57;;;1.83;;
8665;SDS011;4370;48.916;8.380;2023-08-31T09:38:49;2.90;;;1.90;;
8665;SDS011;4370;48.916;8.380;2023-08-31T09:41:15;4.13;;;2.20;;
8665;SDS011;4370;48.916;8.380;2023-08-31T09:43:42;5.33;;;2.23;;
8665;SDS011;4370;48.916;8.380;2023-08-31T09:46:08;5.40;;;2.27;;
8665;SDS011;4370;48.916;8.380;2023-08-31T09:48:35;7.10;;;2.30;;
8665;SDS011;4370;48.916;8.380;2023-08-31T09:51:03;4.60;;;2.40;;
8665;SDS011;4370;48.916;8.380;2023-08-31T09:53:29;5.93;;;2.53;;
8665;SDS011;4370;48.916;8.380;2023-08-31T09:55:57;5.47;;;2.07;;
8665;SDS011;4370;48.916;8.380;2023-08-31T09:58:23;6.97;;;2.90;;
8665;SDS011;4370;48.916;8.380;2023-08-31T10:00:49;5.20;;;2.20;;
8665;SDS011;4370;48.916;8.380;2023-08-31T10:03:16;5.67;;;2.03;;
8665;SDS011;4370;48.916;8.380;2023-08-31T10:05:45;7.33;;;2.20;;
8665;SDS011;4370;48.916;8.380;2023-08-31T10:08:12;4.97;;;2.20;;
8665;SDS011;4370;48.916;8.380;2023-08-31T10:10:39;5.57;;;1.90;;
8665;SDS011;4370;48.916;8.380;2023-08-31T10:13:06;4.50;;;2.33;;
8665;SDS011;4370;48.916;8.380;2023-08-31T10:15:32;4.80;;;2.30;;
8665;SDS011;4370;48.916;8.380;2023-08-31T10:18:01;5.77;;;2.50;;
8665;SDS011;4370;48.916;8.380;2023-08-31T10:20:28;4.90;;;2.20;;
8665;SDS011;4370;48.916;8.380;2023-08-31T10:22:56;5.10;;;1.90;;
8665;SDS011;4370;48.916;8.380;2023-08-31T10:25:23;5.90;;;2.40;;
8665;SDS011;4370;48.916;8.380;2023-08-31T10:27:49;4.83;;;2.40;;
8665;SDS011;4370;48.916;8.380;2023-08-31T10:38:14;4.50;;;2.23;;
8665;SDS011;4370;48.916;8.380;2023-08-31T10:40:40;4.37;;;2.13;;
8665;SDS011;4370;48.916;8.380;2023-08-31T10:43:16;2.97;;;1.97;;
8665;SDS011;4370;48.916;8.380;2023-08-31T10:45:45;5.63;;;2.50;;
8665;SDS011;4370;48.916;8.380;2023-08-31T10:48:11;6.10;;;2.13;;
8665;SDS011;4370;48.916;8.380;2023-08-31T10:50:44;6.07;;;2.20;;
8665;SDS011;4370;48.916;8.380;2023-08-31T10:53:12;3.30;;;2.20;;
8665;SDS011;4370;48.916;8.380;2023-08-31T10:55:50;5.57;;;2.27;;
8665;SDS011;4370;48.916;8.380;2023-08-31T10:58:17;6.27;;;2.30;;
8665;SDS011;4370;48.916;8.380;2023-08-31T11:00:47;3.43;;;2.00;;
8665;SDS011;4370;48.916;8.380;2023-08-31T11:03:13;4.97;;;2.13;;
8665;SDS011;4370;48.916;8.380;2023-08-31T11:05:50;7.63;;;2.67;;
8665;SDS011;4370;48.916;8.380;2023-08-31T11:08:16;3.83;;;2.20;;
8665;SDS011;4370;48.916;8.380;2023-08-31T11:10:45;4.30;;;2.33;;
8665;SDS011;4370;48.916;8.380;2023-08-31T11:13:15;4.07;;;2.37;;
8665;SDS011;4370;48.916;8.380;2023-08-31T11:15:45;5.13;;;2.20;;
8665;SDS011;4370;48.916;8.380;2023-08-31T11:18:11;5.97;;;2.43;;
8665;SDS011;4370;48.916;8.380;2023-08-31T11:20:37;6.10;;;2.67;;
8665;SDS011;4370;48.916;8.380;2023-08-31T11:23:03;6.47;;;1.90;;
8665;SDS011;4370;48.916;8.380;2023-08-31T11:25:32;3.90;;;2.10;;
8665;SDS011;4370;48.916;8.380;2023-08-31T11:27:59;3.67;;;2.20;;
8665;SDS011;4370;48.916;8.380;2023-08-31T11:30:26;4.90;;;2.20;;
8665;SDS011;4370;48.916;8.380;2023-08-31T11:32:52;4.27;;;2.10;;
8665;SDS011;4370;48.916;8.380;2023-08-31T11:35:19;4.73;;;2.20;;
8665;SDS011;4370;48.916;8.380;2023-08-31T11:37:49;5.83;;;2.50;;
8665;SDS011;4370;48.916;8.380;2023-08-31T11:40:15;4.63;;;2.20;;
8665;SDS011;4370;48.916;8.380;2023-08-31T11:42:41;3.70;;;2.37;;
8665;SDS011;4370;48.916;8.380;2023-08-31T11:45:07;5.30;;;2.23;;
8665;SDS011;4370;48.916;8.380;2023-08-31T11:47:34;8.20;;;2.50;;
8665;SDS011;4370;48.916;8.380;2023-08-31T11:50:00;6.03;;;2.23;;
8665;SDS011;4370;48.916;8.380;2023-08-31T11:52:30;4.03;;;2.13;;
8665;SDS011;4370;48.916;8.380;2023-08-31T11:54:56;2.93;;;1.87;;
8665;SDS011;4370;48.916;8.380;2023-08-31T11:57:25;4.70;;;2.37;;
8665;SDS011;4370;48.916;8.380;2023-08-31T11:59:51;4.63;;;2.30;;
8665;SDS011;4370;48.916;8.380;2023-08-31T12:02:18;5.27;;;2.17;;
8665;SDS011;4370;48.916;8.380;2023-08-31T12:04:45;5.20;;;2.20;;
8665;SDS011;4370;48.916;8.380;2023-08-31T12:07:11;5.17;;;2.10;;
8665;SDS011;4370;48.916;8.380;2023-08-31T12:09:37;3.77;;;2.30;;
8665;SDS011;4370;48.916;8.380;2023-08-31T12:12:03;4.57;;;2.30;;
8665;SDS011;4370;48.916;8.380;2023-08-31T12:14:30;5.00;;;2.13;;
8665;SDS011;4370;48.916;8.380;2023-08-31T12:17:03;4.90;;;2.47;;
8665;SDS011;4370;48.916;8.380;2023-08-31T12:19:31;5.30;;;2.40;;
8665;SDS011;4370;48.916;8.380;2023-08-31T12:21:57;4.17;;;1.97;;
8665;SDS011;4370;48.916;8.380;2023-08-31T12:24:24;3.67;;;2.00;;
8665;SDS011;4370;48.916;8.380;2023-08-31T12:26:50;6.57;;;2.30;;
8665;SDS011;4370;48.916;8.380;2023-08-31T12:29:16;4.57;;;2.07;;
8665;SDS011;4370;48.916;8.380;2023-08-31T12:31:42;5.07;;;2.17;;
8665;SDS011;4370;48.916;8.380;2023-08-31T12:34:08;8.20;;;2.33;;
8665;SDS011;4370;48.916;8.380;2023-08-31T12:36:35;5.70;;;2.40;;
8665;SDS011;4370;48.916;8.380;2023-08-31T12:39:06;5.47;;;2.43;;
8665;SDS011;4370;48.916;8.380;2023-08-31T12:41:34;3.60;;;2.13;;
8665;SDS011;4370;48.916;8.380;2023-08-31T12:44:01;4.13;;;2.20;;
8665;SDS011;4370;48.916;8.380;2023-08-31T12:46:28;5.00;;;2.27;;
8665;SDS011;4370;48.916;8.380;2023-08-31T12:48:54;4.80;;;2.30;;
8665;SDS011;4370;48.916;8.380;2023-08-31T12:51:19;5.57;;;2.30;;
8665;SDS011;4370;48.916;8.380;2023-08-31T12:53:45;4.13;;;2.05;;
8665;SDS011;4370;48.916;8.380;2023-08-31T12:56:12;9.27;;;2.50;;
8665;SDS011;4370;48.916;8.380;2023-08-31T12:58:38;6.03;;;2.00;;
8665;SDS011;4370;48.916;8.380;2023-08-31T13:01:04;5.93;;;2.33;;
8665;SDS011;4370;48.916;8.380;2023-08-31T13:03:30;3.53;;;2.20;;
8665;SDS011;4370;48.916;8.380;2023-08-31T13:05:56;4.33;;;2.20;;
8665;SDS011;4370;48.916;8.380;2023-08-31T13:08:22;5.03;;;2.20;;
8665;SDS011;4370;48.916;8.380;2023-08-31T13:10:52;7.17;;;2.30;;
8665;SDS011;4370;48.916;8.380;2023-08-31T13:13:18;4.40;;;2.23;;
8665;SDS011;4370;48.916;8.380;2023-08-31T13:15:48;3.10;;;2.07;;
8665;SDS011;4370;48.916;8.380;2023-08-31T13:18:14;4.33;;;2.20;;
8665;SDS011;4370;48.916;8.380;2023-08-31T13:20:40;4.17;;;2.20;;
8665;SDS011;4370;48.916;8.380;2023-08-31T13:23:06;6.40;;;2.53;;
8665;SDS011;4370;48.916;8.380;2023-08-31T13:25:32;5.27;;;2.23;;
8665;SDS011;4370;48.916;8.380;2023-08-31T13:27:59;4.67;;;2.30;;
8665;SDS011;4370;48.916;8.380;2023-08-31T13:30:25;3.90;;;2.10;;
8665;SDS011;4370;48.916;8.380;2023-08-31T13:32:51;5.10;;;2.33;;
8665;SDS011;4370;48.916;8.380;2023-08-31T13:35:17;4.80;;;2.13;;
8665;SDS011;4370;48.916;8.380;2023-08-31T13:37:43;5.23;;;2.50;;
8665;SDS011;4370;48.916;8.380;2023-08-31T13:40:09;5.73;;;2.50;;
8665;SDS011;4370;48.916;8.380;2023-08-31T13:42:35;4.23;;;2.03;;
8665;SDS011;4370;48.916;8.380;2023-08-31T13:45:07;5.30;;;2.47;;
8665;SDS011;4370;48.916;8.380;2023-08-31T13:47:33;7.43;;;2.43;;
8665;SDS011;4370;48.916;8.380;2023-08-31T13:49:59;7.43;;;2.50;;
8665;SDS011;4370;48.916;8.380;2023-08-31T13:52:25;7.50;;;2.50;;
8665;SDS011;4370;48.916;8.380;2023-08-31T13:54:52;5.83;;;2.20;;
8665;SDS011;4370;48.916;8.380;2023-08-31T13:57:18;5.40;;;2.30;;
8665;SDS011;4370;48.916;8.380;2023-08-31T13:59:44;8.47;;;2.30;;
8665;SDS011;4370;48.916;8.380;2023-08-31T14:02:10;5.67;;;2.50;;
8665;SDS011;4370;48.916;8.380;2023-08-31T14:04:36;9.17;;;2.87;;
8665;SDS011;4370;48.916;8.380;2023-08-31T14:07:02;5.50;;;2.37;;
8665;SDS011;4370;48.916;8.380;2023-08-31T14:09:28;4.60;;;2.30;;
8665;SDS011;4370;48.916;8.380;2023-08-31T14:11:54;5.63;;;2.50;;
8665;SDS011;4370;48.916;8.380;2023-08-31T14:14:22;4.97;;;2.30;;
8665;SDS011;4370;48.916;8.380;2023-08-31T14:16:48;4.67;;;2.30;;
8665;SDS011;4370;48.916;8.380;2023-08-31T14:19:14;5.63;;;2.57;;
8665;SDS011;4370;48.916;8.380;2023-08-31T14:21:40;5.73;;;2.17;;
8665;SDS011;4370;48.916;8.380;2023-08-31T14:24:06;5.27;;;2.20;;
8665;SDS011;4370;48.916;8.380;2023-08-31T14:26:32;6.93;;;2.50;;
8665;SDS011;4370;48.916;8.380;2023-08-31T14:28:58;4.63;;;2.30;;
8665;SDS011;4370;48.916;8.380;2023-08-31T14:31:24;6.53;;;2.60;;
8665;SDS011;4370;48.916;8.380;2023-08-31T14:33:50;4.60;;;2.47;;
8665;SDS011;4370;48.916;8.380;2023-08-31T14:36:17;5.37;;;2.80;;
8665;SDS011;4370;48.916;8.380;2023-08-31T14:38:43;4.43;;;2.40;;
8665;SDS011;4370;48.916;8.380;2023-08-31T14:41:10;4.90;;;2.30;;
8665;SDS011;4370;48.916;8.380;2023-08-31T14:43:37;4.93;;;2.27;;
8665;SDS011;4370;48.916;8.380;2023-08-31T14:46:03;3.30;;;2.20;;
8665;SDS011;4370;48.916;8.380;2023-08-31T14:48:29;6.07;;;2.30;;
8665;SDS011;4370;48.916;8.380;2023-08-31T14:50:55;6.97;;;2.50;;
8665;SDS011;4370;48.916;8.380;2023-08-31T14:53:23;6.00;;;2.17;;
8665;SDS011;4370;48.916;8.380;2023-08-31T14:55:50;4.40;;;2.17;;
8665;SDS011;4370;48.916;8.380;2023-08-31T14:58:16;6.53;;;2.30;;
8665;SDS011;4370;48.916;8.380;2023-08-31T15:00:42;6.13;;;2.60;;
8665;SDS011;4370;48.916;8.380;2023-08-31T15:03:08;3.93;;;2.17;;
8665;SDS011;4370;48.916;8.380;2023-08-31T15:05:34;5.83;;;2.40;;
8665;SDS011;4370;48.916;8.380;2023-08-31T15:08:01;7.47;;;2.93;;
8665;SDS011;4370;48.916;8.380;2023-08-31T15:10:27;6.70;;;2.40;;
8665;SDS011;4370;48.916;8.380;2023-08-31T15:12:53;5.30;;;2.50;;
8665;SDS011;4370;48.916;8.380;2023-08-31T15:15:23;4.33;;;2.37;;
8665;SDS011;4370;48.916;8.380;2023-08-31T15:17:49;10.63;;;2.67;;
8665;SDS011;4370;48.916;8.380;2023-08-31T15:20:15;5.47;;;2.80;;
8665;SDS011;4370;48.916;8.380;2023-08-31T15:22:41;6.17;;;2.60;;
8665;SDS011;4370;48.916;8.380;2023-08-31T15:25:07;4.90;;;2.57;;